sensor_id;sensor_type;location;lat;lon;timestamp;P1;durP1;ratioP1;P2;durP2;ratioP2
50988;SDS011;37008;52.210;21.112;2024-03-06T00:00:00;191.50;;;78.78;;
50988;SDS011;37008;52.210;21.112;2024-03-06T00:02:26;173.50;;;77.57;;
50988;SDS011;37008;52.210;21.112;2024-03-06T00:04:52;183.50;;;80.43;;
50988;SDS011;37008;52.210;21.112;2024-03-06T00:07:18;192.30;;;81.20;;
50988;SDS011;37008;52.210;21.112;2024-03-06T00:09:44;181.45;;;81.68;;
50988;SDS011;37008;52.210;21.112;2024-03-06T00:12:09;174.27;;;78.97;;
50988;SDS011;37008;52.210;21.112;2024-03-06T00:14:35;213.50;;;84.68;;
50988;SDS011;37008;52.210;21.112;2024-03-06T00:17:01;192.63;;;81.93;;
50988;SDS011;37008;52.210;21.112;2024-03-06T00:19:29;191.60;;;80.78;;
50988;SDS011;37008;52.210;21.112;2024-03-06T00:21:55;182.00;;;81.88;;
50988;SDS011;37008;52.210;21.112;2024-03-06T00:24:21;186.82;;;82.07;;
50988;SDS011;37008;52.210;21.112;2024-03-06T00:26:48;176.98;;;81.03;;
50988;SDS011;37008;52.210;21.112;2024-03-06T00:29:13;191.15;;;85.05;;
50988;SDS011;37008;52.210;21.112;2024-03-06T00:31:42;192.38;;;82.53;;
50988;SDS011;37008;52.210;21.112;2024-03-06T00:34:09;183.75;;;82.70;;
50988;SDS011;37008;52.210;21.112;2024-03-06T00:36:36;179.27;;;84.55;;
50988;SDS011;37008;52.210;21.112;2024-03-06T00:39:02;186.95;;;82.65;;
50988;SDS011;37008;52.210;21.112;2024-03-06T00:41:29;168.25;;;80.35;;
50988;SDS011;37008;52.210;21.112;2024-03-06T00:43:55;179.82;;;84.68;;
50988;SDS011;37008;52.210;21.112;2024-03-06T00:46:21;175.95;;;82.38;;
50988;SDS011;37008;52.210;21.112;2024-03-06T00:48:47;175.57;;;77.70;;
50988;SDS011;37008;52.210;21.112;2024-03-06T00:51:12;175.10;;;81.47;;
50988;SDS011;37008;52.210;21.112;2024-03-06T00:53:38;161.57;;;77.15;;
50988;SDS011;37008;52.210;21.112;2024-03-06T00:56:04;168.35;;;78.82;;
50988;SDS011;37008;52.210;21.112;2024-03-06T00:58:30;167.85;;;83.00;;
50988;SDS011;37008;52.210;21.112;2024-03-06T01:00:55;159.18;;;79.45;;
50988;SDS011;37008;52.210;21.112;2024-03-06T01:03:22;167.50;;;82.43;;
50988;SDS011;37008;52.210;21.112;2024-03-06T01:05:48;160.60;;;80.18;;
50988;SDS011;37008;52.210;21.112;2024-03-06T01:08:14;167.13;;;80.70;;
50988;SDS011;37008;52.210;21.112;2024-03-06T01:10:42;171.10;;;81.28;;
50988;SDS011;37008;52.210;21.112;2024-03-06T01:13:08;148.75;;;74.68;;
50988;SDS011;37008;52.210;21.112;2024-03-06T01:15:36;142.40;;;74.45;;
50988;SDS011;37008;52.210;21.112;2024-03-06T01:18:02;142.45;;;72.68;;
50988;SDS011;37008;52.210;21.112;2024-03-06T01:20:28;142.60;;;73.43;;
50988;SDS011;37008;52.210;21.112;2024-03-06T01:22:54;136.20;;;69.72;;
50988;SDS011;37008;52.210;21.112;2024-03-06T01:25:20;113.90;;;67.55;;
50988;SDS011;37008;52.210;21.112;2024-03-06T01:27:47;127.28;;;68.32;;
50988;SDS011;37008;52.210;21.112;2024-03-06T01:30:13;124.32;;;69.15;;
50988;SDS011;37008;52.210;21.112;2024-03-06T01:32:39;105.25;;;60.25;;
50988;SDS011;37008;52.210;21.112;2024-03-06T01:35:05;111.07;;;60.58;;
50988;SDS011;37008;52.210;21.112;2024-03-06T01:37:31;109.63;;;61.15;;
50988;SDS011;37008;52.210;21.112;2024-03-06T01:39:57;102.20;;;58.03;;
50988;SDS011;37008;52.210;21.112;2024-03-06T01:42:23;93.10;;;55.30;;
50988;SDS011;37008;52.210;21.112;2024-03-06T01:44:49;100.25;;;60.40;;
50988;SDS011;37008;52.210;21.112;2024-03-06T01:47:14;90.40;;;53.90;;
50988;SDS011;37008;52.210;21.112;2024-03-06T01:49:40;93.70;;;56.05;;
50988;SDS011;37008;52.210;21.112;2024-03-06T01:52:07;89.70;;;53.28;;
50988;SDS011;37008;52.210;21.112;2024-03-06T01:54:36;87.05;;;54.05;;
50988;SDS011;37008;52.210;21.112;2024-03-06T01:57:02;84.95;;;52.13;;
50988;SDS011;37008;52.210;21.112;2024-03-06T01:59:29;87.32;;;53.45;;
50988;SDS011;37008;52.210;21.112;2024-03-06T02:01:55;84.85;;;52.10;;
50988;SDS011;37008;52.210;21.112;2024-03-06T02:04:21;80.68;;;50.60;;
50988;SDS011;37008;52.210;21.112;2024-03-06T02:06:48;80.50;;;50.42;;
50988;SDS011;37008;52.210;21.112;2024-03-06T02:09:14;82.28;;;49.30;;
50988;SDS011;37008;52.210;21.112;2024-03-06T02:11:40;74.05;;;47.80;;
50988;SDS011;37008;52.210;21.112;2024-03-06T02:14:07;74.25;;;46.70;;
50988;SDS011;37008;52.210;21.112;2024-03-06T02:16:35;69.13;;;45.78;;
50988;SDS011;37008;52.210;21.112;2024-03-06T02:19:01;76.22;;;47.20;;
50988;SDS011;37008;52.210;21.112;2024-03-06T02:21:27;71.40;;;46.10;;
50988;SDS011;37008;52.210;21.112;2024-03-06T02:23:52;73.85;;;45.13;;
50988;SDS011;37008;52.210;21.112;2024-03-06T02:26:19;70.50;;;45.45;;
50988;SDS011;37008;52.210;21.112;2024-03-06T02:28:52;63.78;;;42.75;;
50988;SDS011;37008;52.210;21.112;2024-03-06T02:31:19;62.33;;;40.65;;
50988;SDS011;37008;52.210;21.112;2024-03-06T02:33:46;55.45;;;39.22;;
50988;SDS011;37008;52.210;21.112;2024-03-06T02:36:13;51.53;;;34.50;;
50988;SDS011;37008;52.210;21.112;2024-03-06T02:38:39;65.85;;;40.00;;
50988;SDS011;37008;52.210;21.112;2024-03-06T02:41:05;56.67;;;36.58;;
50988;SDS011;37008;52.210;21.112;2024-03-06T02:43:32;58.40;;;38.75;;
50988;SDS011;37008;52.210;21.112;2024-03-06T02:45:58;58.72;;;36.97;;
50988;SDS011;37008;52.210;21.112;2024-03-06T02:48:23;63.60;;;38.05;;
50988;SDS011;37008;52.210;21.112;2024-03-06T02:50:49;58.80;;;39.05;;
50988;SDS011;37008;52.210;21.112;2024-03-06T02:53:15;64.40;;;40.78;;
50988;SDS011;37008;52.210;21.112;2024-03-06T02:55:40;57.85;;;38.58;;
50988;SDS011;37008;52.210;21.112;2024-03-06T02:58:06;61.30;;;38.67;;
50988;SDS011;37008;52.210;21.112;2024-03-06T03:00:32;67.03;;;40.17;;
50988;SDS011;37008;52.210;21.112;2024-03-06T03:02:57;57.90;;;38.97;;
50988;SDS011;37008;52.210;21.112;2024-03-06T03:05:24;60.13;;;38.15;;
50988;SDS011;37008;52.210;21.112;2024-03-06T03:07:49;55.28;;;38.45;;
50988;SDS011;37008;52.210;21.112;2024-03-06T03:10:16;59.97;;;37.60;;
50988;SDS011;37008;52.210;21.112;2024-03-06T03:12:42;59.33;;;37.88;;
50988;SDS011;37008;52.210;21.112;2024-03-06T03:15:09;55.83;;;36.60;;
50988;SDS011;37008;52.210;21.112;2024-03-06T03:17:35;54.78;;;35.97;;
50988;SDS011;37008;52.210;21.112;2024-03-06T03:20:03;56.33;;;36.05;;
50988;SDS011;37008;52.210;21.112;2024-03-06T03:22:36;59.58;;;37.55;;
50988;SDS011;37008;52.210;21.112;2024-03-06T03:25:03;60.00;;;37.92;;
50988;SDS011;37008;52.210;21.112;2024-03-06T03:27:32;49.08;;;34.63;;
50988;SDS011;37008;52.210;21.112;2024-03-06T03:29:58;51.15;;;34.90;;
50988;SDS011;37008;52.210;21.112;2024-03-06T03:32:24;53.55;;;34.78;;
50988;SDS011;37008;52.210;21.112;2024-03-06T03:34:50;57.53;;;36.72;;
50988;SDS011;37008;52.210;21.112;2024-03-06T03:37:16;53.33;;;34.45;;
50988;SDS011;37008;52.210;21.112;2024-03-06T03:39:43;52.53;;;35.75;;
50988;SDS011;37008;52.210;21.112;2024-03-06T03:42:09;58.97;;;36.92;;
50988;SDS011;37008;52.210;21.112;2024-03-06T03:44:35;56.15;;;36.03;;
50988;SDS011;37008;52.210;21.112;2024-03-06T03:47:01;55.83;;;34.60;;
50988;SDS011;37008;52.210;21.112;2024-03-06T03:49:27;53.22;;;33.78;;
50988;SDS011;37008;52.210;21.112;2024-03-06T03:51:52;57.50;;;35.72;;
50988;SDS011;37008;52.210;21.112;2024-03-06T03:54:18;48.30;;;33.13;;
50988;SDS011;37008;52.210;21.112;2024-03-06T03:56:43;52.38;;;33.90;;
50988;SDS011;37008;52.210;21.112;2024-03-06T03:59:09;48.85;;;33.30;;
50988;SDS011;37008;52.210;21.112;2024-03-06T04:01:35;51.63;;;34.10;;
50988;SDS011;37008;52.210;21.112;2024-03-06T04:04:00;46.53;;;31.77;;
50988;SDS011;37008;52.210;21.112;2024-03-06T04:06:26;52.20;;;31.65;;
50988;SDS011;37008;52.210;21.112;2024-03-06T04:08:52;49.83;;;32.88;;
50988;SDS011;37008;52.210;21.112;2024-03-06T04:11:17;43.55;;;32.65;;
50988;SDS011;37008;52.210;21.112;2024-03-06T04:13:43;46.72;;;30.88;;
50988;SDS011;37008;52.210;21.112;2024-03-06T04:16:09;49.75;;;30.17;;
50988;SDS011;37008;52.210;21.112;2024-03-06T04:18:34;44.38;;;30.42;;
50988;SDS011;37008;52.210;21.112;2024-03-06T04:21:06;49.63;;;30.88;;
50988;SDS011;37008;52.210;21.112;2024-03-06T04:23:33;44.38;;;31.30;;
50988;SDS011;37008;52.210;21.112;2024-03-06T04:25:59;49.45;;;33.38;;
50988;SDS011;37008;52.210;21.112;2024-03-06T04:28:25;40.58;;;29.20;;
50988;SDS011;37008;52.210;21.112;2024-03-06T04:30:50;43.20;;;30.85;;
50988;SDS011;37008;52.210;21.112;2024-03-06T04:33:16;42.35;;;30.40;;
50988;SDS011;37008;52.210;21.112;2024-03-06T04:35:42;41.75;;;30.02;;
50988;SDS011;37008;52.210;21.112;2024-03-06T04:38:07;43.92;;;29.73;;
50988;SDS011;37008;52.210;21.112;2024-03-06T04:40:33;41.42;;;27.60;;
50988;SDS011;37008;52.210;21.112;2024-03-06T04:42:59;43.70;;;29.20;;
50988;SDS011;37008;52.210;21.112;2024-03-06T04:45:26;41.20;;;29.55;;
50988;SDS011;37008;52.210;21.112;2024-03-06T04:47:53;44.17;;;30.73;;
50988;SDS011;37008;52.210;21.112;2024-03-06T04:50:18;42.47;;;29.85;;
50988;SDS011;37008;52.210;21.112;2024-03-06T04:52:44;41.25;;;30.50;;
50988;SDS011;37008;52.210;21.112;2024-03-06T04:55:10;45.10;;;32.88;;
50988;SDS011;37008;52.210;21.112;2024-03-06T04:57:37;43.22;;;30.92;;
50988;SDS011;37008;52.210;21.112;2024-03-06T05:00:04;43.50;;;30.98;;
50988;SDS011;37008;52.210;21.112;2024-03-06T05:02:33;45.00;;;30.08;;
50988;SDS011;37008;52.210;21.112;2024-03-06T05:05:01;44.85;;;30.15;;
50988;SDS011;37008;52.210;21.112;2024-03-06T05:07:30;46.63;;;31.23;;
50988;SDS011;37008;52.210;21.112;2024-03-06T05:09:57;42.60;;;30.52;;
50988;SDS011;37008;52.210;21.112;2024-03-06T05:12:26;46.95;;;31.10;;
50988;SDS011;37008;52.210;21.112;2024-03-06T05:14:53;42.90;;;31.60;;
50988;SDS011;37008;52.210;21.112;2024-03-06T05:17:19;44.83;;;30.58;;
50988;SDS011;37008;52.210;21.112;2024-03-06T05:19:47;44.67;;;30.58;;
50988;SDS011;37008;52.210;21.112;2024-03-06T05:22:14;44.42;;;28.85;;
50988;SDS011;37008;52.210;21.112;2024-03-06T05:24:40;41.38;;;28.15;;
50988;SDS011;37008;52.210;21.112;2024-03-06T05:27:09;45.42;;;28.95;;
50988;SDS011;37008;52.210;21.112;2024-03-06T05:29:38;43.13;;;27.95;;
50988;SDS011;37008;52.210;21.112;2024-03-06T05:32:04;41.92;;;28.80;;
50988;SDS011;37008;52.210;21.112;2024-03-06T05:34:32;44.78;;;29.35;;
50988;SDS011;37008;52.210;21.112;2024-03-06T05:36:58;47.97;;;27.92;;
50988;SDS011;37008;52.210;21.112;2024-03-06T05:39:24;42.58;;;29.52;;
50988;SDS011;37008;52.210;21.112;2024-03-06T05:41:50;34.70;;;25.38;;
50988;SDS011;37008;52.210;21.112;2024-03-06T05:44:16;42.28;;;28.70;;
50988;SDS011;37008;52.210;21.112;2024-03-06T05:46:41;44.63;;;28.42;;
50988;SDS011;37008;52.210;21.112;2024-03-06T05:49:07;42.60;;;28.60;;
50988;SDS011;37008;52.210;21.112;2024-03-06T05:51:33;36.90;;;27.10;;
50988;SDS011;37008;52.210;21.112;2024-03-06T05:53:58;40.47;;;28.52;;
50988;SDS011;37008;52.210;21.112;2024-03-06T05:56:24;42.20;;;27.48;;
50988;SDS011;37008;52.210;21.112;2024-03-06T05:58:49;37.75;;;26.30;;
50988;SDS011;37008;52.210;21.112;2024-03-06T06:01:16;33.58;;;25.33;;
50988;SDS011;37008;52.210;21.112;2024-03-06T06:03:45;35.22;;;25.70;;
50988;SDS011;37008;52.210;21.112;2024-03-06T06:06:14;34.65;;;24.52;;
50988;SDS011;37008;52.210;21.112;2024-03-06T06:08:40;38.53;;;25.17;;
50988;SDS011;37008;52.210;21.112;2024-03-06T06:11:06;35.40;;;25.40;;
50988;SDS011;37008;52.210;21.112;2024-03-06T06:13:32;35.08;;;24.90;;
50988;SDS011;37008;52.210;21.112;2024-03-06T06:15:58;37.60;;;24.13;;
50988;SDS011;37008;52.210;21.112;2024-03-06T06:18:24;38.05;;;25.27;;
50988;SDS011;37008;52.210;21.112;2024-03-06T06:20:49;38.13;;;26.77;;
50988;SDS011;37008;52.210;21.112;2024-03-06T06:23:16;39.72;;;26.05;;
50988;SDS011;37008;52.210;21.112;2024-03-06T06:25:41;40.33;;;25.95;;
50988;SDS011;37008;52.210;21.112;2024-03-06T06:28:07;35.25;;;26.45;;
50988;SDS011;37008;52.210;21.112;2024-03-06T06:30:35;37.25;;;23.42;;
50988;SDS011;37008;52.210;21.112;2024-03-06T06:33:01;29.08;;;18.80;;
50988;SDS011;37008;52.210;21.112;2024-03-06T06:35:26;31.55;;;22.45;;
50988;SDS011;37008;52.210;21.112;2024-03-06T06:37:52;32.38;;;21.40;;
50988;SDS011;37008;52.210;21.112;2024-03-06T06:40:18;28.75;;;22.08;;
50988;SDS011;37008;52.210;21.112;2024-03-06T06:42:45;28.65;;;20.92;;
50988;SDS011;37008;52.210;21.112;2024-03-06T06:45:14;32.38;;;23.77;;
50988;SDS011;37008;52.210;21.112;2024-03-06T06:47:40;33.28;;;19.35;;
50988;SDS011;37008;52.210;21.112;2024-03-06T06:50:06;28.83;;;20.92;;
50988;SDS011;37008;52.210;21.112;2024-03-06T06:52:34;29.20;;;21.08;;
50988;SDS011;37008;52.210;21.112;2024-03-06T06:55:00;29.90;;;20.02;;
50988;SDS011;37008;52.210;21.112;2024-03-06T06:57:26;33.20;;;20.73;;
50988;SDS011;37008;52.210;21.112;2024-03-06T06:59:51;27.52;;;21.58;;
50988;SDS011;37008;52.210;21.112;2024-03-06T07:02:17;25.65;;;16.60;;
50988;SDS011;37008;52.210;21.112;2024-03-06T07:04:43;25.05;;;19.00;;
50988;SDS011;37008;52.210;21.112;2024-03-06T07:07:09;29.10;;;18.80;;
50988;SDS011;37008;52.210;21.112;2024-03-06T07:09:35;26.80;;;17.30;;
50988;SDS011;37008;52.210;21.112;2024-03-06T07:12:00;33.00;;;21.75;;
50988;SDS011;37008;52.210;21.112;2024-03-06T07:14:27;26.55;;;19.65;;
50988;SDS011;37008;52.210;21.112;2024-03-06T07:16:53;27.17;;;19.83;;
50988;SDS011;37008;52.210;21.112;2024-03-06T07:19:19;27.80;;;17.98;;
50988;SDS011;37008;52.210;21.112;2024-03-06T07:21:45;24.20;;;18.20;;
50988;SDS011;37008;52.210;21.112;2024-03-06T07:24:10;25.77;;;17.73;;
50988;SDS011;37008;52.210;21.112;2024-03-06T07:26:36;38.75;;;20.27;;
50988;SDS011;37008;52.210;21.112;2024-03-06T07:29:02;154.52;;;87.40;;
50988;SDS011;37008;52.210;21.112;2024-03-06T07:31:27;249.43;;;110.03;;
50988;SDS011;37008;52.210;21.112;2024-03-06T07:33:53;161.43;;;71.00;;
50988;SDS011;37008;52.210;21.112;2024-03-06T07:36:19;79.93;;;52.75;;
50988;SDS011;37008;52.210;21.112;2024-03-06T07:38:45;49.10;;;35.97;;
50988;SDS011;37008;52.210;21.112;2024-03-06T07:41:11;34.13;;;24.17;;
50988;SDS011;37008;52.210;21.112;2024-03-06T07:43:37;30.88;;;17.73;;
50988;SDS011;37008;52.210;21.112;2024-03-06T07:46:03;27.80;;;17.92;;
50988;SDS011;37008;52.210;21.112;2024-03-06T07:48:35;27.75;;;18.20;;
50988;SDS011;37008;52.210;21.112;2024-03-06T07:51:07;35.10;;;21.45;;
50988;SDS011;37008;52.210;21.112;2024-03-06T07:53:33;23.30;;;16.25;;
50988;SDS011;37008;52.210;21.112;2024-03-06T07:55:58;25.65;;;15.95;;
50988;SDS011;37008;52.210;21.112;2024-03-06T07:58:24;29.58;;;18.35;;
50988;SDS011;37008;52.210;21.112;2024-03-06T08:00:49;28.73;;;18.20;;
50988;SDS011;37008;52.210;21.112;2024-03-06T08:03:17;26.67;;;18.05;;
50988;SDS011;37008;52.210;21.112;2024-03-06T08:05:43;33.05;;;19.75;;
50988;SDS011;37008;52.210;21.112;2024-03-06T08:08:09;40.90;;;26.48;;
50988;SDS011;37008;52.210;21.112;2024-03-06T08:10:34;29.65;;;17.90;;
50988;SDS011;37008;52.210;21.112;2024-03-06T08:13:00;30.80;;;20.65;;
50988;SDS011;37008;52.210;21.112;2024-03-06T08:15:25;27.58;;;20.10;;
50988;SDS011;37008;52.210;21.112;2024-03-06T08:17:51;28.92;;;19.23;;
50988;SDS011;37008;52.210;21.112;2024-03-06T08:20:17;30.90;;;21.00;;
50988;SDS011;37008;52.210;21.112;2024-03-06T08:22:43;33.25;;;19.58;;
50988;SDS011;37008;52.210;21.112;2024-03-06T08:25:09;31.58;;;20.95;;
50988;SDS011;37008;52.210;21.112;2024-03-06T08:27:37;34.92;;;22.90;;
50988;SDS011;37008;52.210;21.112;2024-03-06T08:30:06;46.13;;;35.15;;
50988;SDS011;37008;52.210;21.112;2024-03-06T08:32:36;40.42;;;28.23;;
50988;SDS011;37008;52.210;21.112;2024-03-06T08:35:03;45.83;;;28.98;;
50988;SDS011;37008;52.210;21.112;2024-03-06T08:37:32;39.85;;;25.85;;
50988;SDS011;37008;52.210;21.112;2024-03-06T08:39:59;28.67;;;19.25;;
50988;SDS011;37008;52.210;21.112;2024-03-06T08:42:25;35.63;;;23.30;;
50988;SDS011;37008;52.210;21.112;2024-03-06T08:44:52;34.55;;;22.65;;
50988;SDS011;37008;52.210;21.112;2024-03-06T08:47:17;30.15;;;20.98;;
50988;SDS011;37008;52.210;21.112;2024-03-06T08:49:43;26.80;;;19.13;;
50988;SDS011;37008;52.210;21.112;2024-03-06T08:52:09;41.63;;;30.52;;
50988;SDS011;37008;52.210;21.112;2024-03-06T08:54:37;38.70;;;26.25;;
50988;SDS011;37008;52.210;21.112;2024-03-06T08:57:03;31.02;;;22.02;;
50988;SDS011;37008;52.210;21.112;2024-03-06T08:59:29;26.75;;;18.38;;
50988;SDS011;37008;52.210;21.112;2024-03-06T09:01:55;38.45;;;25.98;;
50988;SDS011;37008;52.210;21.112;2024-03-06T09:04:21;37.25;;;27.30;;
50988;SDS011;37008;52.210;21.112;2024-03-06T09:06:47;32.47;;;20.90;;
50988;SDS011;37008;52.210;21.112;2024-03-06T09:09:16;43.45;;;30.45;;
50988;SDS011;37008;52.210;21.112;2024-03-06T09:11:42;37.83;;;21.90;;
50988;SDS011;37008;52.210;21.112;2024-03-06T09:14:07;41.67;;;29.58;;
50988;SDS011;37008;52.210;21.112;2024-03-06T09:16:34;27.75;;;18.50;;
50988;SDS011;37008;52.210;21.112;2024-03-06T09:19:00;27.83;;;16.60;;
50988;SDS011;37008;52.210;21.112;2024-03-06T09:21:26;44.88;;;27.80;;
50988;SDS011;37008;52.210;21.112;2024-03-06T09:23:53;50.83;;;26.10;;
50988;SDS011;37008;52.210;21.112;2024-03-06T09:26:19;29.10;;;15.43;;
50988;SDS011;37008;52.210;21.112;2024-03-06T09:28:45;26.60;;;16.75;;
50988;SDS011;37008;52.210;21.112;2024-03-06T09:31:11;22.55;;;13.77;;
50988;SDS011;37008;52.210;21.112;2024-03-06T09:33:38;25.38;;;16.55;;
50988;SDS011;37008;52.210;21.112;2024-03-06T09:36:04;33.40;;;19.42;;
50988;SDS011;37008;52.210;21.112;2024-03-06T09:38:30;33.35;;;19.13;;
50988;SDS011;37008;52.210;21.112;2024-03-06T09:40:56;74.72;;;38.38;;
50988;SDS011;37008;52.210;21.112;2024-03-06T09:43:22;28.88;;;16.23;;
50988;SDS011;37008;52.210;21.112;2024-03-06T09:45:49;29.00;;;17.67;;
50988;SDS011;37008;52.210;21.112;2024-03-06T09:48:16;41.08;;;23.02;;
50988;SDS011;37008;52.210;21.112;2024-03-06T09:50:45;23.02;;;15.32;;
50988;SDS011;37008;52.210;21.112;2024-03-06T09:53:15;29.85;;;13.95;;
50988;SDS011;37008;52.210;21.112;2024-03-06T09:55:41;25.83;;;15.15;;
50988;SDS011;37008;52.210;21.112;2024-03-06T09:58:07;42.50;;;22.15;;
50988;SDS011;37008;52.210;21.112;2024-03-06T10:00:37;38.30;;;22.35;;
50988;SDS011;37008;52.210;21.112;2024-03-06T10:03:03;35.33;;;22.05;;
50988;SDS011;37008;52.210;21.112;2024-03-06T10:05:34;55.15;;;28.50;;
50988;SDS011;37008;52.210;21.112;2024-03-06T10:08:03;51.05;;;25.65;;
50988;SDS011;37008;52.210;21.112;2024-03-06T10:10:30;46.80;;;22.05;;
50988;SDS011;37008;52.210;21.112;2024-03-06T10:12:56;29.52;;;17.92;;
50988;SDS011;37008;52.210;21.112;2024-03-06T10:15:22;30.92;;;18.33;;
50988;SDS011;37008;52.210;21.112;2024-03-06T10:17:48;27.17;;;17.73;;
50988;SDS011;37008;52.210;21.112;2024-03-06T10:20:18;34.45;;;18.05;;
50988;SDS011;37008;52.210;21.112;2024-03-06T10:22:51;28.10;;;15.98;;
50988;SDS011;37008;52.210;21.112;2024-03-06T10:25:21;34.20;;;18.90;;
50988;SDS011;37008;52.210;21.112;2024-03-06T10:28:06;43.40;;;20.88;;
50988;SDS011;37008;52.210;21.112;2024-03-06T10:30:33;29.55;;;16.88;;
50988;SDS011;37008;52.210;21.112;2024-03-06T10:33:01;29.48;;;15.95;;
50988;SDS011;37008;52.210;21.112;2024-03-06T10:35:28;31.45;;;16.75;;
50988;SDS011;37008;52.210;21.112;2024-03-06T10:37:54;23.52;;;11.70;;
50988;SDS011;37008;52.210;21.112;2024-03-06T10:40:20;33.53;;;15.15;;
50988;SDS011;37008;52.210;21.112;2024-03-06T10:42:48;22.30;;;13.63;;
50988;SDS011;37008;52.210;21.112;2024-03-06T10:45:14;29.17;;;16.92;;
50988;SDS011;37008;52.210;21.112;2024-03-06T10:47:46;35.17;;;18.50;;
50988;SDS011;37008;52.210;21.112;2024-03-06T10:50:13;37.13;;;21.42;;
50988;SDS011;37008;52.210;21.112;2024-03-06T10:52:40;21.27;;;13.98;;
50988;SDS011;37008;52.210;21.112;2024-03-06T10:55:07;25.40;;;16.05;;
50988;SDS011;37008;52.210;21.112;2024-03-06T10:57:35;31.30;;;18.75;;
50988;SDS011;37008;52.210;21.112;2024-03-06T11:00:02;26.55;;;15.75;;
50988;SDS011;37008;52.210;21.112;2024-03-06T11:02:27;24.70;;;16.40;;
50988;SDS011;37008;52.210;21.112;2024-03-06T11:04:54;19.92;;;14.23;;
50988;SDS011;37008;52.210;21.112;2024-03-06T11:07:20;28.02;;;15.85;;
50988;SDS011;37008;52.210;21.112;2024-03-06T11:09:45;19.75;;;12.50;;
50988;SDS011;37008;52.210;21.112;2024-03-06T11:12:29;23.55;;;14.90;;
50988;SDS011;37008;52.210;21.112;2024-03-06T11:15:13;20.55;;;11.40;;
50988;SDS011;37008;52.210;21.112;2024-03-06T11:17:39;19.75;;;12.48;;
50988;SDS011;37008;52.210;21.112;2024-03-06T11:28:17;14.68;;;8.60;;
50988;SDS011;37008;52.210;21.112;2024-03-06T11:31:02;14.45;;;10.55;;
50988;SDS011;37008;52.210;21.112;2024-03-06T11:33:35;15.38;;;10.05;;
50988;SDS011;37008;52.210;21.112;2024-03-06T11:36:20;14.90;;;10.52;;
50988;SDS011;37008;52.210;21.112;2024-03-06T11:41:46;16.65;;;10.98;;
50988;SDS011;37008;52.210;21.112;2024-03-06T11:44:20;18.67;;;10.00;;
50988;SDS011;37008;52.210;21.112;2024-03-06T11:46:56;13.27;;;8.82;;
50988;SDS011;37008;52.210;21.112;2024-03-06T11:49:26;15.38;;;8.80;;
50988;SDS011;37008;52.210;21.112;2024-03-06T11:51:57;16.90;;;10.77;;
50988;SDS011;37008;52.210;21.112;2024-03-06T11:54:24;14.73;;;10.68;;
50988;SDS011;37008;52.210;21.112;2024-03-06T11:56:53;12.75;;;9.27;;
50988;SDS011;37008;52.210;21.112;2024-03-06T11:59:29;15.35;;;9.77;;
50988;SDS011;37008;52.210;21.112;2024-03-06T12:02:01;13.48;;;9.57;;
50988;SDS011;37008;52.210;21.112;2024-03-06T12:04:33;12.73;;;8.93;;
50988;SDS011;37008;52.210;21.112;2024-03-06T12:07:02;19.67;;;10.35;;
50988;SDS011;37008;52.210;21.112;2024-03-06T12:09:31;13.73;;;10.15;;
50988;SDS011;37008;52.210;21.112;2024-03-06T12:12:00;14.10;;;9.63;;
50988;SDS011;37008;52.210;21.112;2024-03-06T12:14:27;14.63;;;9.65;;
50988;SDS011;37008;52.210;21.112;2024-03-06T12:16:56;19.27;;;10.48;;
50988;SDS011;37008;52.210;21.112;2024-03-06T12:19:23;11.70;;;7.05;;
50988;SDS011;37008;52.210;21.112;2024-03-06T12:21:50;15.45;;;11.00;;
50988;SDS011;37008;52.210;21.112;2024-03-06T12:24:16;13.57;;;7.47;;
50988;SDS011;37008;52.210;21.112;2024-03-06T12:26:46;15.50;;;7.70;;
50988;SDS011;37008;52.210;21.112;2024-03-06T12:29:17;13.38;;;8.43;;
50988;SDS011;37008;52.210;21.112;2024-03-06T12:31:46;13.68;;;7.68;;
50988;SDS011;37008;52.210;21.112;2024-03-06T12:34:14;15.30;;;7.75;;
50988;SDS011;37008;52.210;21.112;2024-03-06T12:36:43;10.60;;;7.75;;
50988;SDS011;37008;52.210;21.112;2024-03-06T12:39:10;16.27;;;10.95;;
50988;SDS011;37008;52.210;21.112;2024-03-06T12:41:43;20.17;;;15.88;;
50988;SDS011;37008;52.210;21.112;2024-03-06T12:44:10;9.77;;;5.80;;
50988;SDS011;37008;52.210;21.112;2024-03-06T12:46:35;18.10;;;8.15;;
50988;SDS011;37008;52.210;21.112;2024-03-06T12:49:01;10.45;;;7.20;;
50988;SDS011;37008;52.210;21.112;2024-03-06T12:51:27;11.70;;;6.50;;
50988;SDS011;37008;52.210;21.112;2024-03-06T12:53:52;17.60;;;10.18;;
50988;SDS011;37008;52.210;21.112;2024-03-06T12:56:18;25.02;;;15.02;;
50988;SDS011;37008;52.210;21.112;2024-03-06T12:58:44;17.20;;;10.00;;
50988;SDS011;37008;52.210;21.112;2024-03-06T13:01:10;18.33;;;10.07;;
50988;SDS011;37008;52.210;21.112;2024-03-06T13:03:36;16.15;;;10.32;;
50988;SDS011;37008;52.210;21.112;2024-03-06T13:06:03;16.77;;;8.63;;
50988;SDS011;37008;52.210;21.112;2024-03-06T13:08:29;17.20;;;9.80;;
50988;SDS011;37008;52.210;21.112;2024-03-06T13:10:58;16.48;;;9.35;;
50988;SDS011;37008;52.210;21.112;2024-03-06T13:13:24;18.38;;;9.20;;
50988;SDS011;37008;52.210;21.112;2024-03-06T13:15:50;18.58;;;10.40;;
50988;SDS011;37008;52.210;21.112;2024-03-06T13:18:17;16.80;;;10.43;;
50988;SDS011;37008;52.210;21.112;2024-03-06T13:20:43;18.35;;;10.18;;
50988;SDS011;37008;52.210;21.112;2024-03-06T13:23:09;12.15;;;6.85;;
50988;SDS011;37008;52.210;21.112;2024-03-06T13:25:35;13.05;;;8.20;;
50988;SDS011;37008;52.210;21.112;2024-03-06T13:28:01;22.05;;;11.10;;
50988;SDS011;37008;52.210;21.112;2024-03-06T13:30:28;17.35;;;8.05;;
50988;SDS011;37008;52.210;21.112;2024-03-06T13:32:54;14.18;;;8.65;;
50988;SDS011;37008;52.210;21.112;2024-03-06T13:35:19;14.65;;;8.65;;
50988;SDS011;37008;52.210;21.112;2024-03-06T13:37:45;15.52;;;8.18;;
50988;SDS011;37008;52.210;21.112;2024-03-06T13:40:11;15.10;;;8.82;;
50988;SDS011;37008;52.210;21.112;2024-03-06T13:42:40;15.63;;;8.55;;
50988;SDS011;37008;52.210;21.112;2024-03-06T13:45:07;13.55;;;7.47;;
50988;SDS011;37008;52.210;21.112;2024-03-06T13:47:42;24.92;;;14.82;;
50988;SDS011;37008;52.210;21.112;2024-03-06T13:50:10;13.05;;;7.60;;
50988;SDS011;37008;52.210;21.112;2024-03-06T13:52:37;24.67;;;10.32;;
50988;SDS011;37008;52.210;21.112;2024-03-06T13:55:03;19.35;;;9.82;;
50988;SDS011;37008;52.210;21.112;2024-03-06T13:57:31;17.70;;;8.77;;
50988;SDS011;37008;52.210;21.112;2024-03-06T14:00:03;15.20;;;8.45;;
50988;SDS011;37008;52.210;21.112;2024-03-06T14:02:42;19.48;;;8.25;;
50988;SDS011;37008;52.210;21.112;2024-03-06T14:05:10;13.57;;;8.38;;
50988;SDS011;37008;52.210;21.112;2024-03-06T14:07:38;18.38;;;9.20;;
50988;SDS011;37008;52.210;21.112;2024-03-06T14:10:04;14.73;;;8.93;;
50988;SDS011;37008;52.210;21.112;2024-03-06T14:12:30;18.55;;;9.18;;
50988;SDS011;37008;52.210;21.112;2024-03-06T14:14:56;13.80;;;8.75;;
50988;SDS011;37008;52.210;21.112;2024-03-06T14:17:22;15.40;;;8.90;;